Time;durP1;ratioP1;P1;durP2;ratioP2;P2;SDS_P1;SDS_P2;PMS_P1;PMS_P2;Temp;Humidity;BMP_temperature;BMP_pressure;BME280_temperature;BME280_humidity;BME280_pressure;Samples;Min_cycle;Max_cycle;Signal;HPM_P1;HPM_P2
2023/03/05 00:00:19;;;;;;;8.60;8.20;;;;;;;;;;5015537;28;20033;-61
2023/03/05 00:02:44;;;;;;;9.60;9.10;;;;;;;;;;5014059;28;20496;-61
2023/03/05 00:05:10;;;;;;;8.73;8.32;;;;;;;;;;5015161;28;20069;-61
2023/03/05 00:07:35;;;;;;;8.80;8.40;;;;;;;;;;5014823;28;20026;-62
2023/03/05 00:10:01;;;;;;;8.90;8.50;;;;;;;;;;5014797;28;20018;-62
2023/03/05 00:12:27;;;;;;;9.18;8.70;;;;;;;;;;5015641;28;20477;-62
2023/03/05 00:14:52;;;;;;;9.38;8.88;;;;;;;;;;5024288;28;20026;-60
2023/03/05 00:17:17;;;;;;;9.10;8.70;;;;;;;;;;5026799;28;20022;-62
2023/03/05 00:19:42;;;;;;;8.43;8.02;;;;;;;;;;5014305;28;20018;-61
2023/03/05 00:22:08;;;;;;;8.73;8.32;;;;;;;;;;5014748;28;20030;-62
2023/03/05 00:24:33;;;;;;;9.38;8.88;;;;;;;;;;5014992;28;20061;-63
2023/03/05 00:26:58;;;;;;;9.38;8.88;;;;;;;;;;5014350;28;20104;-62
2023/03/05 00:29:24;;;;;;;9.10;8.65;;;;;;;;;;5013746;28;20049;-63
2023/03/05 00:31:49;;;;;;;8.70;8.30;;;;;;;;;;5014368;28;20392;-62
2023/03/05 00:34:16;;;;;;;8.60;8.20;;;;;;;;;;5014659;28;20472;-62
2023/03/05 00:36:42;;;;;;;9.30;8.80;;;;;;;;;;5013647;28;20088;-62
2023/03/05 00:39:08;;;;;;;8.90;8.50;;;;;;;;;;5014438;28;20029;-63
2023/03/05 00:41:33;;;;;;;9.40;8.90;;;;;;;;;;5014608;28;20026;-61
2023/03/05 00:43:58;;;;;;;8.82;8.43;;;;;;;;;;5014143;28;20692;-62
2023/03/05 00:46:26;;;;;;;8.40;8.00;;;;;;;;;;5014449;28;20022;-61
2023/03/05 00:48:51;;;;;;;8.95;8.55;;;;;;;;;;5014193;28;20018;-62
2023/03/05 00:51:16;;;;;;;8.70;8.30;;;;;;;;;;5014166;28;20431;-60
2023/03/05 00:53:42;;;;;;;9.45;8.95;;;;;;;;;;5007567;28;20037;-61
2023/03/05 00:56:07;;;;;;;8.80;8.40;;;;;;;;;;5008029;28;20021;-62
2023/03/05 00:58:33;;;;;;;8.68;8.27;;;;;;;;;;5014147;28;20115;-61
2023/03/05 01:00:58;;;;;;;9.02;8.63;;;;;;;;;;5014000;28;20075;-62
2023/03/05 01:03:24;;;;;;;8.52;8.13;;;;;;;;;;5014207;28;20093;-62
2023/03/05 01:05:49;;;;;;;9.07;8.63;;;;;;;;;;5013821;28;20252;-62
2023/03/05 01:08:15;;;;;;;8.93;8.50;;;;;;;;;;5014156;28;20026;-61
2023/03/05 01:10:41;;;;;;;8.55;8.15;;;;;;;;;;5013473;28;20164;-62
2023/03/05 01:13:06;;;;;;;9.07;8.63;;;;;;;;;;5014021;28;20049;-61
2023/03/05 01:15:31;;;;;;;8.50;8.10;;;;;;;;;;5025212;28;20018;-61
2023/03/05 01:17:57;;;;;;;9.18;8.70;;;;;;;;;;5015046;28;20018;-62
2023/03/05 01:20:22;;;;;;;9.10;8.60;;;;;;;;;;5014066;28;20552;-62
2023/03/05 01:22:47;;;;;;;8.80;8.40;;;;;;;;;;5013522;28;20029;-62
2023/03/05 01:25:14;;;;;;;9.23;8.73;;;;;;;;;;5013058;28;20079;-62
2023/03/05 01:27:39;;;;;;;8.82;8.43;;;;;;;;;;5012882;28;20084;-61
2023/03/05 01:30:06;;;;;;;9.45;8.95;;;;;;;;;;5013409;28;20501;-62
2023/03/05 01:32:32;;;;;;;8.88;8.48;;;;;;;;;;5013490;28;20149;-60
2023/03/05 01:34:57;;;;;;;9.10;8.60;;;;;;;;;;5009899;28;20053;-60
2023/03/05 01:37:22;;;;;;;8.90;8.50;;;;;;;;;;5013880;28;20030;-62
2023/03/05 01:39:47;;;;;;;8.90;8.50;;;;;;;;;;5004604;28;20048;-62
2023/03/05 01:42:13;;;;;;;8.45;8.05;;;;;;;;;;5013277;28;20026;-61
2023/03/05 01:44:38;;;;;;;8.63;8.23;;;;;;;;;;5007363;28;20026;-61
2023/03/05 01:47:03;;;;;;;8.50;8.10;;;;;;;;;;5005500;28;20373;-61
2023/03/05 01:49:35;;;;;;;8.60;8.20;;;;;;;;;;5011917;28;20444;-61
2023/03/05 01:52:06;;;;;;;8.95;8.52;;;;;;;;;;5012887;28;20087;-62
2023/03/05 01:54:33;;;;;;;8.80;8.40;;;;;;;;;;5012708;28;20096;-62
2023/03/05 01:56:59;;;;;;;8.98;8.48;;;;;;;;;;5008852;28;20076;-62
2023/03/05 01:59:25;;;;;;;8.70;8.30;;;;;;;;;;5013374;28;20022;-62
2023/03/05 02:01:53;;;;;;;8.57;8.18;;;;;;;;;;5010919;28;20500;-61
2023/03/05 02:04:20;;;;;;;8.50;8.10;;;;;;;;;;5013320;28;20022;-62
2023/03/05 02:06:46;;;;;;;8.70;8.30;;;;;;;;;;5010240;28;20061;-62
2023/03/05 02:09:11;;;;;;;8.98;8.52;;;;;;;;;;5013044;28;20461;-61
2023/03/05 02:11:37;;;;;;;8.40;8.00;;;;;;;;;;5013079;28;20488;-61
2023/03/05 02:14:03;;;;;;;8.55;8.15;;;;;;;;;;4996674;28;20052;-61
2023/03/05 02:16:35;;;;;;;9.18;8.68;;;;;;;;;;5016709;28;20030;-62
2023/03/05 02:19:04;;;;;;;9.15;8.65;;;;;;;;;;5008482;28;20057;-62
2023/03/05 02:21:56;;;;;;;9.60;9.10;;;;;;;;;;5004508;28;20026;-62
2023/03/05 02:24:35;;;;;;;8.73;8.32;;;;;;;;;;5013670;28;20489;-63
2023/03/05 02:27:01;;;;;;;8.90;8.50;;;;;;;;;;5012651;28;20030;-61
2023/03/05 02:29:28;;;;;;;9.35;8.85;;;;;;;;;;5012024;28;20502;-61
2023/03/05 02:31:53;;;;;;;9.02;8.63;;;;;;;;;;5012759;28;20014;-62
2023/03/05 02:34:19;;;;;;;8.98;8.57;;;;;;;;;;5012561;28;20145;-61
2023/03/05 02:36:44;;;;;;;8.85;8.45;;;;;;;;;;5012492;28;20489;-62
2023/03/05 02:39:09;;;;;;;8.77;8.38;;;;;;;;;;5010926;28;20030;-61
2023/03/05 02:41:35;;;;;;;8.98;8.57;;;;;;;;;;5011453;28;20048;-61
2023/03/05 02:44:00;;;;;;;8.88;8.48;;;;;;;;;;5012166;28;20480;-61
2023/03/05 02:46:25;;;;;;;9.48;8.98;;;;;;;;;;5008397;28;20033;-62
2023/03/05 02:48:51;;;;;;;8.50;8.10;;;;;;;;;;5010686;28;20053;-61
2023/03/05 02:51:16;;;;;;;8.63;8.23;;;;;;;;;;5012188;28;20045;-61
2023/03/05 02:53:41;;;;;;;9.05;8.55;;;;;;;;;;5010146;28;20113;-62
2023/03/05 02:56:06;;;;;;;9.25;8.75;;;;;;;;;;5000242;28;20010;-61
2023/03/05 02:58:32;;;;;;;9.23;8.73;;;;;;;;;;5006334;28;20068;-62
2023/03/05 03:00:57;;;;;;;9.07;8.57;;;;;;;;;;5011226;28;20072;-61
2023/03/05 03:03:22;;;;;;;9.38;8.88;;;;;;;;;;5011140;28;20335;-61
2023/03/05 03:05:48;;;;;;;9.18;8.68;;;;;;;;;;5010683;28;20121;-61
2023/03/05 03:08:14;;;;;;;9.27;8.77;;;;;;;;;;4999017;28;20437;-62
2023/03/05 03:10:39;;;;;;;8.93;8.52;;;;;;;;;;5002943;28;20432;-61
2023/03/05 03:13:04;;;;;;;8.88;8.48;;;;;;;;;;5011865;28;20034;-62
2023/03/05 03:15:29;;;;;;;8.70;8.30;;;;;;;;;;5020784;28;20049;-62
2023/03/05 03:17:55;;;;;;;9.27;8.77;;;;;;;;;;5011727;28;20063;-61
2023/03/05 03:20:20;;;;;;;9.63;9.10;;;;;;;;;;5011589;28;20061;-61
2023/03/05 03:22:46;;;;;;;8.38;7.97;;;;;;;;;;5011810;28;20044;-61
2023/03/05 03:25:15;;;;;;;8.30;7.90;;;;;;;;;;4997521;28;20041;-61
2023/03/05 03:27:41;;;;;;;8.38;7.97;;;;;;;;;;5009294;28;20155;-62
2023/03/05 03:30:06;;;;;;;8.70;8.30;;;;;;;;;;5011447;28;20124;-61
2023/03/05 03:32:32;;;;;;;8.68;8.27;;;;;;;;;;5011188;28;20018;-61
2023/03/05 03:34:57;;;;;;;9.00;8.50;;;;;;;;;;5011540;28;20052;-62
2023/03/05 03:37:22;;;;;;;8.50;8.10;;;;;;;;;;5007468;28;20113;-62
2023/03/05 03:39:48;;;;;;;9.13;8.63;;;;;;;;;;5002124;28;20043;-61
2023/03/05 03:42:15;;;;;;;8.48;8.07;;;;;;;;;;5010441;28;20385;-61
2023/03/05 03:44:41;;;;;;;8.93;8.50;;;;;;;;;;5011482;28;20022;-62
2023/03/05 03:47:06;;;;;;;8.55;8.15;;;;;;;;;;5011269;28;20040;-61
2023/03/05 03:49:31;;;;;;;8.45;8.05;;;;;;;;;;5011969;28;20053;-62
2023/03/05 03:51:59;;;;;;;8.40;8.00;;;;;;;;;;5003427;28;20363;-62
2023/03/05 03:54:26;;;;;;;8.50;8.10;;;;;;;;;;5007006;28;20029;-61
2023/03/05 03:56:52;;;;;;;8.73;8.32;;;;;;;;;;5010524;28;20057;-62
2023/03/05 03:59:17;;;;;;;8.70;8.30;;;;;;;;;;5010956;28;20107;-61
2023/03/05 04:01:42;;;;;;;8.32;7.93;;;;;;;;;;4989598;28;20084;-62
2023/03/05 04:04:09;;;;;;;9.25;8.75;;;;;;;;;;5007926;28;20029;-61
2023/03/05 04:06:34;;;;;;;9.23;8.73;;;;;;;;;;5010305;28;20022;-62
2023/03/05 04:08:59;;;;;;;9.10;8.60;;;;;;;;;;5010681;28;20045;-62
2023/03/05 04:11:24;;;;;;;8.95;8.55;;;;;;;;;;5014930;28;20006;-62
2023/03/05 04:13:50;;;;;;;8.60;8.20;;;;;;;;;;5015783;28;20028;-62
2023/03/05 04:16:15;;;;;;;8.65;8.25;;;;;;;;;;5020168;28;20481;-62
2023/03/05 04:18:41;;;;;;;8.75;8.35;;;;;;;;;;5015462;28;20515;-62
2023/03/05 04:21:06;;;;;;;9.23;8.73;;;;;;;;;;5013439;28;20026;-63
2023/03/05 04:23:32;;;;;;;9.10;8.60;;;;;;;;;;5014558;28;20392;-61
2023/03/05 04:25:57;;;;;;;9.10;8.68;;;;;;;;;;5013923;28;20022;-62
2023/03/05 04:28:22;;;;;;;8.45;8.05;;;;;;;;;;5014639;28;20053;-62
2023/03/05 04:30:48;;;;;;;8.70;8.30;;;;;;;;;;5014356;28;20092;-62
2023/03/05 04:33:13;;;;;;;8.60;8.20;;;;;;;;;;5014062;28;20036;-61
2023/03/05 04:35:39;;;;;;;8.77;8.38;;;;;;;;;;5010977;28;20053;-62
2023/03/05 04:38:04;;;;;;;9.15;8.65;;;;;;;;;;5013220;28;20093;-61
2023/03/05 04:40:29;;;;;;;8.20;7.80;;;;;;;;;;5014520;28;20034;-62
2023/03/05 04:42:54;;;;;;;8.07;7.68;;;;;;;;;;5013791;28;20608;-62
2023/03/05 04:45:20;;;;;;;8.05;7.65;;;;;;;;;;5014801;28;20432;-62
2023/03/05 04:47:45;;;;;;;8.65;8.25;;;;;;;;;;5013920;28;20110;-61
2023/03/05 04:50:11;;;;;;;8.70;8.30;;;;;;;;;;5014227;28;20104;-61
2023/03/05 04:52:41;;;;;;;8.30;7.90;;;;;;;;;;5014466;28;20080;-61
2023/03/05 04:55:06;;;;;;;8.18;7.78;;;;;;;;;;5014536;28;20017;-61
2023/03/05 04:57:31;;;;;;;8.38;7.97;;;;;;;;;;5012694;28;20026;-62
2023/03/05 04:59:57;;;;;;;8.80;8.40;;;;;;;;;;5014323;28;20037;-63
2023/03/05 05:02:23;;;;;;;8.70;8.27;;;;;;;;;;5012261;28;20162;-62
2023/03/05 05:04:51;;;;;;;9.02;8.55;;;;;;;;;;5013918;28;20113;-62
2023/03/05 05:07:16;;;;;;;8.30;7.90;;;;;;;;;;5008628;28;20385;-62
2023/03/05 05:09:41;;;;;;;8.05;7.70;;;;;;;;;;5013185;28;20063;-63
2023/03/05 05:12:07;;;;;;;9.18;8.68;;;;;;;;;;5013576;28;20040;-62
2023/03/05 05:14:33;;;;;;;9.23;8.73;;;;;;;;;;5017673;28;20025;-63
2023/03/05 05:16:59;;;;;;;8.25;7.85;;;;;;;;;;5008862;28;20022;-62
2023/03/05 05:19:24;;;;;;;8.88;8.40;;;;;;;;;;5013690;28;20064;-61
2023/03/05 05:21:49;;;;;;;8.82;8.43;;;;;;;;;;5013746;28;20030;-61
2023/03/05 05:24:15;;;;;;;9.23;8.73;;;;;;;;;;5013201;28;20057;-60
2023/03/05 05:26:40;;;;;;;9.57;9.07;;;;;;;;;;5012613;28;20117;-61
2023/03/05 05:29:05;;;;;;;8.75;8.35;;;;;;;;;;5013426;28;20137;-61
2023/03/05 05:31:32;;;;;;;9.50;9.00;;;;;;;;;;5009801;28;20469;-62
2023/03/05 05:33:57;;;;;;;9.52;9.02;;;;;;;;;;5002900;28;20030;-61
2023/03/05 05:36:22;;;;;;;9.02;8.60;;;;;;;;;;5013266;28;20021;-61
2023/03/05 05:38:49;;;;;;;9.15;8.65;;;;;;;;;;5013001;28;20018;-61
2023/03/05 05:41:15;;;;;;;8.73;8.32;;;;;;;;;;5012743;28;20099;-62
2023/03/05 05:43:41;;;;;;;8.70;8.30;;;;;;;;;;5011925;28;20030;-61
2023/03/05 05:46:09;;;;;;;9.10;8.60;;;;;;;;;;5003896;28;20072;-63
2023/03/05 05:48:35;;;;;;;9.52;9.02;;;;;;;;;;5013658;28;20026;-62
2023/03/05 05:51:07;;;;;;;9.55;9.05;;;;;;;;;;5014325;28;20496;-62
2023/03/05 05:53:33;;;;;;;8.77;8.38;;;;;;;;;;5015300;28;20034;-61
2023/03/05 05:55:58;;;;;;;8.40;8.00;;;;;;;;;;5008082;28;20105;-61
2023/03/05 05:58:23;;;;;;;8.50;8.10;;;;;;;;;;5006512;28;20105;-61
2023/03/05 06:00:49;;;;;;;8.70;8.30;;;;;;;;;;5009798;28;20030;-63
2023/03/05 06:03:14;;;;;;;8.77;8.38;;;;;;;;;;5012610;28;20071;-62
2023/03/05 06:05:40;;;;;;;8.65;8.25;;;;;;;;;;5012582;28;20033;-62
2023/03/05 06:08:06;;;;;;;8.80;8.40;;;;;;;;;;5012467;28;20109;-62
2023/03/05 06:10:31;;;;;;;9.02;8.52;;;;;;;;;;5011852;28;20112;-61
2023/03/05 06:12:56;;;;;;;8.50;8.10;;;;;;;;;;5010235;28;20022;-62
2023/03/05 06:15:22;;;;;;;9.02;8.52;;;;;;;;;;5024373;28;20044;-62
2023/03/05 06:17:47;;;;;;;9.13;8.63;;;;;;;;;;5012465;28;20393;-63
2023/03/05 06:20:12;;;;;;;9.63;9.13;;;;;;;;;;5012661;28;20025;-61
2023/03/05 06:22:38;;;;;;;8.75;8.35;;;;;;;;;;5012624;28;20058;-61
2023/03/05 06:25:04;;;;;;;9.48;8.98;;;;;;;;;;5012351;28;20488;-62
2023/03/05 06:27:29;;;;;;;9.48;8.98;;;;;;;;;;4997897;28;20058;-62
2023/03/05 06:29:55;;;;;;;10.05;9.50;;;;;;;;;;5011778;28;20065;-61
2023/03/05 06:32:21;;;;;;;9.82;9.30;;;;;;;;;;5009126;28;20029;-63
2023/03/05 06:34:46;;;;;;;8.40;8.00;;;;;;;;;;5009697;28;20026;-61
2023/03/05 06:37:12;;;;;;;8.93;8.50;;;;;;;;;;5012049;28;20014;-61
2023/03/05 06:39:37;;;;;;;8.82;8.43;;;;;;;;;;5012321;28;20018;-61
2023/03/05 06:42:02;;;;;;;9.90;9.35;;;;;;;;;;5002648;28;20037;-63
2023/03/05 06:44:27;;;;;;;8.50;8.10;;;;;;;;;;5012392;28;20072;-63
2023/03/05 06:46:53;;;;;;;8.60;8.20;;;;;;;;;;5005248;28;20026;-61
2023/03/05 06:49:18;;;;;;;9.23;8.73;;;;;;;;;;5001945;28;20528;-62
2023/03/05 06:51:44;;;;;;;8.57;8.18;;;;;;;;;;5012491;28;20105;-61
2023/03/05 06:54:14;;;;;;;9.02;8.55;;;;;;;;;;5007337;28;20421;-59
2023/03/05 06:56:40;;;;;;;9.02;8.60;;;;;;;;;;5007379;28;20041;-61
2023/03/05 06:59:06;;;;;;;8.35;7.95;;;;;;;;;;5012603;28;20022;-62
2023/03/05 07:01:31;;;;;;;8.70;8.30;;;;;;;;;;5010320;28;20461;-60
2023/03/05 07:03:59;;;;;;;8.80;8.40;;;;;;;;;;5011926;28;20024;-60
2023/03/05 07:06:26;;;;;;;8.45;8.05;;;;;;;;;;5010805;28;20073;-60
2023/03/05 07:08:53;;;;;;;8.48;8.07;;;;;;;;;;5004094;28;20022;-61
2023/03/05 07:11:19;;;;;;;8.38;7.97;;;;;;;;;;5009578;28;20466;-62
2023/03/05 07:13:47;;;;;;;8.40;8.00;;;;;;;;;;5011667;28;20109;-61
2023/03/05 07:16:14;;;;;;;8.90;8.50;;;;;;;;;;5020445;28;20021;-61
2023/03/05 07:18:40;;;;;;;9.05;8.65;;;;;;;;;;5009738;28;20419;-62
2023/03/05 07:21:06;;;;;;;9.10;8.65;;;;;;;;;;5011699;28;20026;-60
2023/03/05 07:23:31;;;;;;;8.30;7.90;;;;;;;;;;4999351;28;20084;-61
2023/03/05 07:25:59;;;;;;;8.88;8.48;;;;;;;;;;5009954;28;20034;-61
2023/03/05 07:28:24;;;;;;;9.45;8.95;;;;;;;;;;5008896;28;20094;-62
2023/03/05 07:31:00;;;;;;;10.25;9.65;;;;;;;;;;5004342;28;20717;-62
2023/03/05 07:33:25;;;;;;;8.45;8.05;;;;;;;;;;5009268;28;20068;-62
2023/03/05 07:35:50;;;;;;;8.80;8.40;;;;;;;;;;5009768;28;20113;-61
2023/03/05 07:38:16;;;;;;;9.02;8.63;;;;;;;;;;5011246;28;20030;-61
2023/03/05 07:40:41;;;;;;;9.15;8.70;;;;;;;;;;5014613;28;20034;-62
2023/03/05 07:43:07;;;;;;;9.15;8.70;;;;;;;;;;5015276;28;20583;-61
2023/03/05 07:45:33;;;;;;;10.90;10.30;;;;;;;;;;5014379;28;20101;-62
2023/03/05 07:47:58;;;;;;;11.77;11.07;;;;;;;;;;5012352;28;20034;-62
2023/03/05 07:50:23;;;;;;;9.85;9.35;;;;;;;;;;5014372;28;20108;-61
2023/03/05 07:52:49;;;;;;;9.30;8.82;;;;;;;;;;5008806;28;20038;-62
2023/03/05 07:55:14;;;;;;;10.88;10.27;;;;;;;;;;5005491;28;20026;-61
2023/03/05 07:57:39;;;;;;;9.32;8.88;;;;;;;;;;5001855;28;20033;-60
2023/03/05 08:00:05;;;;;;;9.85;9.35;;;;;;;;;;4999466;28;20039;-61
2023/03/05 08:02:31;;;;;;;9.60;9.10;;;;;;;;;;5006705;28;20052;-62
2023/03/05 08:04:56;;;;;;;9.32;8.82;;;;;;;;;;4999826;28;20500;-62
2023/03/05 08:07:21;;;;;;;11.65;10.95;;;;;;;;;;4994636;28;20405;-62
2023/03/05 08:09:47;;;;;;;10.90;10.30;;;;;;;;;;5002413;28;20531;-62
2023/03/05 08:12:12;;;;;;;11.52;10.82;;;;;;;;;;5011935;28;20069;-61
2023/03/05 08:14:37;;;;;;;9.52;9.02;;;;;;;;;;5016799;28;20014;-61
2023/03/05 08:17:03;;;;;;;9.73;9.23;;;;;;;;;;5000109;28;20609;-61
2023/03/05 08:19:29;;;;;;;9.77;9.27;;;;;;;;;;5009854;28;20017;-62
2023/03/05 08:21:54;;;;;;;9.68;9.18;;;;;;;;;;4996968;28;20033;-62
2023/03/05 08:24:19;;;;;;;11.07;10.45;;;;;;;;;;4994579;28;20062;-61
2023/03/05 08:26:44;;;;;;;10.77;10.18;;;;;;;;;;5002443;28;20032;-62
2023/03/05 08:29:10;;;;;;;9.23;8.73;;;;;;;;;;4999787;28;20080;-62
2023/03/05 08:31:36;;;;;;;9.90;9.40;;;;;;;;;;4992796;28;20551;-62
2023/03/05 08:34:02;;;;;;;9.80;9.30;;;;;;;;;;5001303;28;20076;-61
2023/03/05 08:36:28;;;;;;;9.18;8.77;;;;;;;;;;4997724;28;20022;-61
2023/03/05 08:38:54;;;;;;;9.07;8.68;;;;;;;;;;5000196;28;20026;-61
2023/03/05 08:41:20;;;;;;;9.27;8.80;;;;;;;;;;4996455;28;20072;-62
2023/03/05 08:43:45;;;;;;;10.07;9.57;;;;;;;;;;4993798;28;20054;-61
2023/03/05 08:46:11;;;;;;;10.43;9.82;;;;;;;;;;4993885;28;20034;-60
2023/03/05 08:48:37;;;;;;;10.95;10.35;;;;;;;;;;5000138;28;20038;-61
2023/03/05 08:51:23;;;;;;;9.95;9.45;;;;;;;;;;4997851;28;20028;-60
2023/03/05 08:53:49;;;;;;;10.05;9.55;;;;;;;;;;4997233;28;20120;-62
2023/03/05 08:56:14;;;;;;;10.07;9.57;;;;;;;;;;5002713;28;20484;-62
2023/03/05 08:58:40;;;;;;;9.63;9.13;;;;;;;;;;5004614;28;20025;-62
2023/03/05 09:01:05;;;;;;;9.50;9.00;;;;;;;;;;5007015;28;20113;-62
2023/03/05 09:03:30;;;;;;;9.45;8.95;;;;;;;;;;5012269;28;20030;-60
2023/03/05 09:05:59;;;;;;;9.40;8.90;;;;;;;;;;5017996;28;20033;-61
2023/03/05 09:08:25;;;;;;;9.60;9.10;;;;;;;;;;5010331;28;20109;-61
2023/03/05 09:10:50;;;;;;;9.70;9.20;;;;;;;;;;5012923;28;20695;-62
2023/03/05 09:13:15;;;;;;;9.05;8.65;;;;;;;;;;5009546;28;20037;-61
2023/03/05 09:15:41;;;;;;;9.00;8.60;;;;;;;;;;5004543;28;20022;-62
2023/03/05 09:18:07;;;;;;;9.95;9.45;;;;;;;;;;5021229;28;20378;-61
2023/03/05 09:20:33;;;;;;;10.55;9.95;;;;;;;;;;4998662;28;20108;-62
2023/03/05 09:22:59;;;;;;;10.60;10.00;;;;;;;;;;5002505;28;20105;-61
2023/03/05 09:25:24;;;;;;;9.75;9.25;;;;;;;;;;5006501;28;20559;-60
2023/03/05 09:27:49;;;;;;;8.77;8.38;;;;;;;;;;5004341;28;20038;-61
2023/03/05 09:30:15;;;;;;;9.35;8.85;;;;;;;;;;5004595;28;20072;-61
2023/03/05 09:32:41;;;;;;;9.45;8.98;;;;;;;;;;5008558;28;20021;-61
2023/03/05 09:35:07;;;;;;;10.05;9.55;;;;;;;;;;5008310;28;20516;-63
2023/03/05 09:37:32;;;;;;;11.10;10.48;;;;;;;;;;5009969;28;20746;-60
2023/03/05 09:39:57;;;;;;;12.05;11.32;;;;;;;;;;5005261;28;20041;-60
2023/03/05 09:42:25;;;;;;;9.15;8.75;;;;;;;;;;5005319;28;20033;-67
2023/03/05 09:45:09;;;;;;;10.40;9.80;;;;;;;;;;5002915;28;20038;-63
2023/03/05 09:47:37;;;;;;;9.30;8.80;;;;;;;;;;5005349;28;20041;-62
2023/03/05 09:50:03;;;;;;;9.10;8.70;;;;;;;;;;5006401;28;20362;-63
2023/03/05 09:52:31;;;;;;;10.23;9.70;;;;;;;;;;5010458;28;20436;-63
2023/03/05 09:54:57;;;;;;;9.63;9.13;;;;;;;;;;4992366;28;20105;-63
2023/03/05 09:57:30;;;;;;;9.20;8.73;;;;;;;;;;5000670;28;20909;-62
2023/03/05 10:00:00;;;;;;;9.77;9.27;;;;;;;;;;5014780;28;20034;-62
2023/03/05 10:02:31;;;;;;;9.85;9.35;;;;;;;;;;5000398;28;20492;-63
2023/03/05 10:05:15;;;;;;;9.05;8.65;;;;;;;;;;5000621;28;20034;-62
2023/03/05 10:07:42;;;;;;;10.50;9.90;;;;;;;;;;5009928;28;20041;-65
2023/03/05 10:10:33;;;;;;;9.73;9.23;;;;;;;;;;5000411;28;20049;-62
2023/03/05 10:13:00;;;;;;;10.85;10.25;;;;;;;;;;4991632;28;20037;-63
2023/03/05 10:15:42;;;;;;;10.18;9.63;;;;;;;;;;5006537;28;20500;-67
2023/03/05 10:18:46;;;;;;;9.95;9.45;;;;;;;;;;5006424;28;20037;-63
2023/03/05 10:21:20;;;;;;;8.65;8.25;;;;;;;;;;4970564;28;20035;-62
2023/03/05 10:24:18;;;;;;;9.63;9.13;;;;;;;;;;4970694;28;20034;-63
2023/03/05 10:26:43;;;;;;;9.93;9.43;;;;;;;;;;4979013;28;20498;-63
2023/03/05 10:29:18;;;;;;;9.35;8.85;;;;;;;;;;5005443;28;20073;-63
2023/03/05 10:32:01;;;;;;;9.18;8.70;;;;;;;;;;5011443;28;20334;-62
2023/03/05 10:34:38;;;;;;;9.57;9.07;;;;;;;;;;5010711;28;20014;-64
2023/03/05 10:37:16;;;;;;;9.20;8.75;;;;;;;;;;5012987;28;20022;-62
2023/03/05 10:40:08;;;;;;;8.90;8.50;;;;;;;;;;5012870;28;20026;-63
2023/03/05 10:42:37;;;;;;;8.82;8.43;;;;;;;;;;5009105;28;20030;-62
2023/03/05 10:45:16;;;;;;;9.68;9.18;;;;;;;;;;5012085;28;20532;-63
2023/03/05 10:47:48;;;;;;;8.60;8.20;;;;;;;;;;4992421;28;20505;-63
2023/03/05 10:50:15;;;;;;;9.82;9.32;;;;;;;;;;5007051;28;20026;-62
2023/03/05 10:52:45;;;;;;;9.00;8.60;;;;;;;;;;5012299;28;20054;-62
2023/03/05 10:55:12;;;;;;;9.00;8.60;;;;;;;;;;5010326;28;20022;-62
2023/03/05 10:57:38;;;;;;;8.57;8.18;;;;;;;;;;5012262;28;20108;-64
2023/03/05 11:00:15;;;;;;;9.50;9.00;;;;;;;;;;5011630;28;20165;-63
2023/03/05 11:03:00;;;;;;;9.48;8.98;;;;;;;;;;5005608;28;20764;-62
2023/03/05 11:05:31;;;;;;;8.82;8.43;;;;;;;;;;5011844;28;20345;-62
2023/03/05 11:07:57;;;;;;;10.32;9.73;;;;;;;;;;5002620;28;20118;-63
2023/03/05 11:10:22;;;;;;;10.05;9.52;;;;;;;;;;5008688;28;20018;-63
2023/03/05 11:12:47;;;;;;;10.27;9.73;;;;;;;;;;5011214;28;20028;-63
2023/03/05 11:15:13;;;;;;;9.43;8.93;;;;;;;;;;5017956;28;20080;-63
2023/03/05 11:17:42;;;;;;;9.45;8.95;;;;;;;;;;5015862;28;20056;-63
2023/03/05 11:20:33;;;;;;;9.77;9.27;;;;;;;;;;5011002;28;20034;-63
2023/03/05 11:23:03;;;;;;;12.25;11.45;;;;;;;;;;5002892;28;20038;-63
2023/03/05 11:25:28;;;;;;;11.35;10.65;;;;;;;;;;5014690;28;20022;-63
2023/03/05 11:27:55;;;;;;;9.93;9.43;;;;;;;;;;5015509;28;20037;-63
2023/03/05 11:30:24;;;;;;;9.60;9.10;;;;;;;;;;5015273;28;20533;-63
2023/03/05 11:32:49;;;;;;;8.98;8.57;;;;;;;;;;5015389;28;20018;-63
2023/03/05 11:35:34;;;;;;;10.57;9.98;;;;;;;;;;5013945;28;20038;-63
2023/03/05 11:38:01;;;;;;;11.38;10.70;;;;;;;;;;5011796;28;20366;-63
2023/03/05 11:40:28;;;;;;;9.35;8.85;;;;;;;;;;5015060;28;20481;-63
2023/03/05 11:42:55;;;;;;;8.88;8.48;;;;;;;;;;5015582;28;20025;-63
2023/03/05 11:45:21;;;;;;;9.60;9.10;;;;;;;;;;5015119;28;20326;-62
2023/03/05 11:47:59;;;;;;;9.98;9.48;;;;;;;;;;5015188;28;20105;-63
2023/03/05 11:50:26;;;;;;;11.63;10.93;;;;;;;;;;5005608;28;20027;-63
2023/03/05 11:52:59;;;;;;;11.07;10.45;;;;;;;;;;5014615;28;20026;-63
2023/03/05 11:55:26;;;;;;;11.43;10.73;;;;;;;;;;5012770;28;20026;-63
2023/03/05 11:58:10;;;;;;;9.27;8.77;;;;;;;;;;5027456;28;20500;-64
2023/03/05 12:00:37;;;;;;;9.23;8.80;;;;;;;;;;5002106;28;20538;-64
2023/03/05 12:03:06;;;;;;;9.98;9.48;;;;;;;;;;5014556;28;20496;-63
2023/03/05 12:05:31;;;;;;;9.60;9.10;;;;;;;;;;5009512;28;20022;-63
2023/03/05 12:07:59;;;;;;;9.65;9.15;;;;;;;;;;5014770;28;20080;-63
2023/03/05 12:10:25;;;;;;;10.85;10.25;;;;;;;;;;5014613;28;20018;-63
2023/03/05 12:12:54;;;;;;;10.55;9.95;;;;;;;;;;5014663;28;20038;-63
2023/03/05 12:15:38;;;;;;;11.95;11.25;;;;;;;;;;5014594;28;20022;-64
2023/03/05 12:18:06;;;;;;;11.40;10.70;;;;;;;;;;5001862;28;20031;-63
2023/03/05 12:20:51;;;;;;;9.52;9.02;;;;;;;;;;5014768;28;20029;-63
2023/03/05 12:23:17;;;;;;;9.30;8.80;;;;;;;;;;5014776;28;20026;-62
2023/03/05 12:25:47;;;;;;;9.60;9.10;;;;;;;;;;5013267;28;20034;-63
2023/03/05 12:28:15;;;;;;;9.52;9.02;;;;;;;;;;5014139;28;20026;-62
2023/03/05 12:30:40;;;;;;;10.00;9.50;;;;;;;;;;5014648;28;20069;-64
2023/03/05 12:33:25;;;;;;;9.80;9.30;;;;;;;;;;5003046;28;20038;-63
2023/03/05 12:35:50;;;;;;;10.60;10.00;;;;;;;;;;5012887;28;20374;-62
2023/03/05 12:38:17;;;;;;;11.60;10.90;;;;;;;;;;5017833;28;20076;-63
2023/03/05 12:40:42;;;;;;;9.85;9.35;;;;;;;;;;5020802;28;20495;-63
2023/03/05 12:43:27;;;;;;;9.85;9.35;;;;;;;;;;5013878;28;20113;-64
2023/03/05 12:46:13;;;;;;;8.63;8.23;;;;;;;;;;5008378;28;20441;-63
2023/03/05 12:48:42;;;;;;;9.85;9.35;;;;;;;;;;5013839;28;20022;-62
2023/03/05 12:51:11;;;;;;;10.95;10.35;;;;;;;;;;4996089;28;20555;-63
2023/03/05 12:53:36;;;;;;;10.77;10.18;;;;;;;;;;5012827;28;20026;-62
2023/03/05 12:56:11;;;;;;;8.90;8.50;;;;;;;;;;5013932;28;20018;-63
2023/03/05 12:58:41;;;;;;;9.10;8.70;;;;;;;;;;5013604;28;20018;-63
2023/03/05 13:01:06;;;;;;;9.80;9.30;;;;;;;;;;5006847;28;20018;-63
2023/03/05 13:03:34;;;;;;;10.70;10.10;;;;;;;;;;5013922;28;20049;-64
2023/03/05 13:06:02;;;;;;;11.38;10.68;;;;;;;;;;5013836;28;20022;-63
2023/03/05 13:08:30;;;;;;;10.88;10.27;;;;;;;;;;5012927;28;20030;-64
2023/03/05 13:10:55;;;;;;;11.98;11.27;;;;;;;;;;5012558;28;20021;-63
2023/03/05 13:13:21;;;;;;;11.90;11.20;;;;;;;;;;5017069;28;20022;-63
2023/03/05 13:15:47;;;;;;;10.90;10.30;;;;;;;;;;5011015;28;20029;-63
2023/03/05 13:18:38;;;;;;;9.40;8.90;;;;;;;;;;5013315;28;20022;-63
2023/03/05 13:21:04;;;;;;;9.40;8.90;;;;;;;;;;5002727;28;20053;-62
2023/03/05 13:23:29;;;;;;;9.05;8.65;;;;;;;;;;5013388;28;20547;-63
2023/03/05 13:25:56;;;;;;;9.27;8.77;;;;;;;;;;5013611;28;20022;-63
2023/03/05 13:28:22;;;;;;;9.60;9.10;;;;;;;;;;5007148;28;20022;-63
2023/03/05 13:31:10;;;;;;;10.73;10.13;;;;;;;;;;5012878;28;20049;-63
2023/03/05 13:33:36;;;;;;;10.90;10.30;;;;;;;;;;4996227;28;20109;-63
2023/03/05 13:36:02;;;;;;;11.45;10.75;;;;;;;;;;5013559;28;20101;-63
2023/03/05 13:38:32;;;;;;;9.15;8.68;;;;;;;;;;5005157;28;20029;-63
2023/03/05 13:41:09;;;;;;;10.95;10.35;;;;;;;;;;5010234;28;20401;-63
2023/03/05 13:43:41;;;;;;;11.48;10.77;;;;;;;;;;5011544;28;20026;-63
2023/03/05 13:46:06;;;;;;;11.65;10.95;;;;;;;;;;5014607;28;20110;-63
2023/03/05 13:48:31;;;;;;;11.68;10.98;;;;;;;;;;5009457;28;20026;-63
2023/03/05 13:50:57;;;;;;;10.50;9.93;;;;;;;;;;5011021;28;20029;-63
2023/03/05 13:53:24;;;;;;;11.55;10.85;;;;;;;;;;5011865;28;20010;-63
2023/03/05 13:55:51;;;;;;;10.77;10.18;;;;;;;;;;5011155;28;20096;-63
2023/03/05 13:58:35;;;;;;;9.55;9.05;;;;;;;;;;5000603;28;20110;-63
2023/03/05 14:01:23;;;;;;;10.20;9.60;;;;;;;;;;5003722;28;20073;-63
2023/03/05 14:03:49;;;;;;;11.68;10.98;;;;;;;;;;4982574;28;20026;-63
2023/03/05 14:06:17;;;;;;;10.85;10.25;;;;;;;;;;5012138;28;20026;-63
2023/03/05 14:08:47;;;;;;;12.23;11.45;;;;;;;;;;5011717;28;20080;-63
2023/03/05 14:11:14;;;;;;;10.90;10.30;;;;;;;;;;4999966;28;20101;-63
2023/03/05 14:13:40;;;;;;;9.10;8.70;;;;;;;;;;5015325;28;20022;-63
2023/03/05 14:16:08;;;;;;;10.90;10.30;;;;;;;;;;5011708;28;20025;-64
2023/03/05 14:18:33;;;;;;;11.20;10.50;;;;;;;;;;5010798;28;20045;-63
2023/03/05 14:21:04;;;;;;;11.10;10.45;;;;;;;;;;5008342;28;20030;-63
2023/03/05 14:23:33;;;;;;;10.73;10.13;;;;;;;;;;5011947;28;20018;-62
2023/03/05 14:26:16;;;;;;;10.95;10.35;;;;;;;;;;4999256;28;20081;-63
2023/03/05 14:28:41;;;;;;;10.80;10.20;;;;;;;;;;5009804;28;20354;-64
2023/03/05 14:31:14;;;;;;;11.70;11.00;;;;;;;;;;5011674;28;20025;-63
2023/03/05 14:33:39;;;;;;;10.63;10.02;;;;;;;;;;5011463;28;20017;-63
2023/03/05 14:36:06;;;;;;;11.02;10.38;;;;;;;;;;5009497;28;20540;-63
2023/03/05 14:38:32;;;;;;;10.52;9.93;;;;;;;;;;5002280;28;20042;-63
2023/03/05 14:41:17;;;;;;;10.55;9.95;;;;;;;;;;5011041;28;20034;-63